Etusivu
METAR-TAF:

METAR-TAF

Lentoasemat :

Borlänge, Ruotsi

Leveyspiiri: 60-26N, Pituuspiiri: 015-31E, korkeus merenpinnasta: 145 m

Tämänhetkinen sää

Tämä raportti tehtiin 26 minuuttia sitten, kello 23.50 UTC
Tuuli 4 kn idästä/koillisesta
Lämpötila 11°C
Kosteus 71%
Ilmanpaine 1012 hPa
Näkyvyys 10 km tai enemmän

METAR: ESSD 282350Z AUTO 06004KT 9999 NCD 11/06 Q1012

Aika: 02:16 (00:16 UTC)

Sääennuste

Tämä raportti tehtiin 9 tuntia ja 46 minuuttia sitten, kello 14.30 UTC
Ennuste voimassa 28. päivästä klo 15 UTC - 28. päivään klo 19 UTC
Tuuli 2 kn eri suunnista
Näkyvyys 10 km tai enemmän
ei pilviä alle 1500 m:ssä eikä cumulonimbus-pilviä

TAF: ESSD 281430Z 2815/2819 VRB02KT CAVOK

Säähavainnot ja -ennusteet yli 4000 lentoasemalta (METAR- ja TAF-raportit).

Käytössä olevat sääasemat on merkitty karttaan keltaisilla ja punaisilla pisteillä.

Aseta hiiri pisteen päälle nähdäksesi sääaseman nimen.

Klikkaa sitten nähdäksesi säähavainnot ja -ennusteet.

Kartan vaihtaminen: klikkaa mustalla rastilla varustettuja vihreitä pisteitä, niin voit zoomata sisään; viivalla varustettua vihreää pistettä, niin voit zoomata ulos tai vihreitä nuolia, niin pääset viereisille kartoille.


METAR-TAF: